createdAt,value
2019-04-11T00:00:21.318Z,1015.77
2019-04-11T00:01:32.572Z,1015.79
2019-04-11T00:02:21.350Z,1015.76
2019-04-11T00:03:21.598Z,1015.80
2019-04-11T00:04:20.329Z,1015.79
2019-04-11T00:05:21.021Z,1015.81
2019-04-11T00:06:20.314Z,1015.74
2019-04-11T00:07:20.465Z,1015.82
2019-04-11T00:08:20.289Z,1015.81
2019-04-11T00:09:20.780Z,1015.81
2019-04-11T00:10:20.759Z,1015.85
2019-04-11T00:11:20.255Z,1015.82
2019-04-11T00:12:20.245Z,1015.84
2019-04-11T00:13:25.207Z,1015.89
2019-04-11T00:14:22.105Z,1015.85
2019-04-11T00:15:20.365Z,1015.89
2019-04-11T00:16:21.172Z,1015.84
2019-04-11T00:17:20.195Z,1015.86
2019-04-11T00:18:20.771Z,1015.93
2019-04-11T00:19:21.168Z,1015.89
2019-04-11T00:20:20.195Z,1015.88
2019-04-11T00:21:20.421Z,1015.89
2019-04-11T00:22:20.136Z,1015.82
2019-04-11T00:23:20.111Z,1015.89
2019-04-11T00:24:20.784Z,1015.86
2019-04-11T00:25:20.090Z,1015.91
2019-04-11T00:26:20.200Z,1015.92
2019-04-11T00:27:21.144Z,1015.90
2019-04-11T00:28:20.076Z,1015.93
2019-04-11T00:29:20.564Z,1015.95
2019-04-11T00:30:20.048Z,1015.96
2019-04-11T00:31:20.965Z,1015.99
2019-04-11T00:32:21.167Z,1015.97
2019-04-11T00:33:20.233Z,1015.96
2019-04-11T00:34:20.634Z,1015.97
2019-04-11T00:35:19.989Z,1015.98
2019-04-11T00:36:20.080Z,1016.02
2019-04-11T00:37:21.028Z,1016.04
2019-04-11T00:38:19.998Z,1015.96
2019-04-11T00:39:19.948Z,1016.01
2019-04-11T00:40:20.020Z,1015.97
2019-04-11T00:41:19.922Z,1015.96
2019-04-11T00:42:20.759Z,1016.00
2019-04-11T00:43:30.823Z,1016.04
2019-04-11T00:44:20.992Z,1016.03
2019-04-11T00:45:19.863Z,1016.05
2019-04-11T00:46:20.384Z,1015.99
2019-04-11T00:47:20.719Z,1016.02
2019-04-11T00:48:19.826Z,1016.03
2019-04-11T00:49:19.851Z,1016.02
2019-04-11T00:50:19.825Z,1016.04
2019-04-11T00:51:20.094Z,1016.04
2019-04-11T00:52:20.592Z,1016.05
2019-04-11T00:53:20.509Z,1016.02
2019-04-11T00:54:19.757Z,1016.02
2019-04-11T00:55:19.765Z,1016.03
2019-04-11T00:56:19.998Z,1016.04
2019-04-11T00:57:19.739Z,1016.01
2019-04-11T00:58:19.719Z,1016.00
2019-04-11T00:59:20.389Z,1016.02
2019-04-11T01:00:20.798Z,1016.01
2019-04-11T01:01:19.817Z,1016.07
2019-04-11T01:02:19.676Z,1016.03
2019-04-11T01:03:20.172Z,1016.05
2019-04-11T01:04:20.018Z,1016.05
2019-04-11T01:05:19.651Z,1016.06
2019-04-11T01:06:20.437Z,1016.07
2019-04-11T01:07:19.628Z,1016.11
2019-04-11T01:08:19.844Z,1016.09
2019-04-11T01:09:20.123Z,1016.05
2019-04-11T01:10:20.329Z,1016.09
2019-04-11T01:11:19.588Z,1016.06
2019-04-11T01:12:20.567Z,1016.12
2019-04-11T01:13:19.547Z,1016.08
2019-04-11T01:14:19.587Z,1016.10
2019-04-11T01:15:19.611Z,1016.13
2019-04-11T01:16:20.178Z,1016.11
2019-04-11T01:17:19.513Z,1016.13
2019-04-11T01:18:20.704Z,1016.06
2019-04-11T01:19:19.514Z,1016.14
2019-04-11T01:20:19.594Z,1016.12
2019-04-11T01:21:20.038Z,1016.17
2019-04-11T01:22:20.222Z,1016.21
2019-04-11T01:23:20.658Z,1016.17
2019-04-11T01:24:19.743Z,1016.18
2019-04-11T01:25:20.125Z,1016.16
2019-04-11T01:26:19.444Z,1016.16
2019-04-11T01:27:19.395Z,1016.16
2019-04-11T01:28:20.643Z,1016.16
2019-04-11T01:29:19.676Z,1016.16
2019-04-11T01:30:19.384Z,1016.20
2019-04-11T01:31:19.742Z,1016.16
2019-04-11T01:32:19.327Z,1016.18
2019-04-11T01:33:20.620Z,1016.16
2019-04-11T01:34:20.248Z,1016.13
2019-04-11T01:35:19.379Z,1016.18
2019-04-11T01:36:19.301Z,1016.18
2019-04-11T01:37:19.713Z,1016.16
2019-04-11T01:38:21.337Z,1016.16
2019-04-11T01:39:19.247Z,1016.12
2019-04-11T01:40:19.247Z,1016.15
2019-04-11T01:41:20.462Z,1016.14
2019-04-11T01:42:19.503Z,1016.14
2019-04-11T01:43:19.852Z,1016.18
2019-04-11T01:44:19.191Z,1016.19
2019-04-11T01:45:19.199Z,1016.17
2019-04-11T01:46:20.132Z,1016.22
2019-04-11T01:47:19.166Z,1016.24
2019-04-11T01:48:19.571Z,1016.23
2019-04-11T01:49:19.801Z,1016.26
2019-04-11T01:50:19.159Z,1016.23
2019-04-11T01:51:19.147Z,1016.24
2019-04-11T01:52:20.264Z,1016.23
2019-04-11T01:53:19.255Z,1016.23
2019-04-11T01:54:19.565Z,1016.24
2019-04-11T01:55:19.066Z,1016.24
2019-04-11T01:56:19.077Z,1016.21
2019-04-11T01:57:20.048Z,1016.25
2019-04-11T01:58:19.035Z,1016.24
2019-04-11T01:59:19.504Z,1016.29
2019-04-11T02:00:19.706Z,1016.29
2019-04-11T02:01:19.011Z,1016.25
2019-04-11T02:02:19.186Z,1016.26
2019-04-11T02:03:19.186Z,1016.28
2019-04-11T02:04:19.481Z,1016.32
2019-04-11T02:05:18.945Z,1016.31
2019-04-11T02:06:19.005Z,1016.30
2019-04-11T02:07:18.930Z,1016.28
2019-04-11T02:08:19.625Z,1016.30
2019-04-11T02:09:19.924Z,1016.30
2019-04-11T02:10:18.973Z,1016.30
2019-04-11T02:11:18.916Z,1016.34
2019-04-11T02:12:19.781Z,1016.31
2019-04-11T02:13:19.563Z,1016.32
2019-04-11T02:14:20.991Z,1016.33
2019-04-11T02:15:19.825Z,1016.44
2019-04-11T02:16:19.068Z,1016.43
2019-04-11T02:17:18.920Z,1016.36
2019-04-11T02:18:19.367Z,1016.41
2019-04-11T02:19:18.796Z,1016.38
2019-04-11T02:20:18.796Z,1016.45
2019-04-11T02:21:19.809Z,1016.40
2019-04-11T02:22:18.783Z,1016.50
2019-04-11T02:23:19.911Z,1016.48
2019-04-11T02:24:19.524Z,1016.44
2019-04-11T02:25:18.741Z,1016.46
2019-04-11T02:26:18.885Z,1016.47
2019-04-11T02:27:19.042Z,1016.45
2019-04-11T02:28:18.685Z,1016.47
2019-04-11T02:29:19.369Z,1016.48
2019-04-11T02:30:21.074Z,1016.50
2019-04-11T02:31:20.462Z,1016.52
2019-04-11T02:32:20.671Z,1016.52
2019-04-11T02:33:18.637Z,1016.49
2019-04-11T02:34:19.373Z,1016.47
2019-04-11T02:35:20.413Z,1016.46
2019-04-11T02:36:19.251Z,1016.51
2019-04-11T02:37:19.742Z,1016.48
2019-04-11T02:38:19.051Z,1016.49
2019-04-11T02:39:20.334Z,1016.51
2019-04-11T02:40:20.197Z,1016.50
2019-04-11T02:41:18.949Z,1016.48
2019-04-11T02:42:18.999Z,1016.52
2019-04-11T02:43:20.223Z,1016.54
2019-04-11T02:44:52.384Z,1016.54
2019-04-11T02:45:30.807Z,1016.52
2019-04-11T02:46:27.868Z,1016.55
2019-04-11T02:47:24.514Z,1016.58
2019-04-11T02:48:20.686Z,1016.55
2019-04-11T02:49:19.348Z,1016.57
2019-04-11T02:50:19.778Z,1016.55
2019-04-11T02:51:18.432Z,1016.58
2019-04-11T02:52:19.549Z,1016.60
2019-04-11T02:53:18.419Z,1016.59
2019-04-11T02:54:21.810Z,1016.54
2019-04-11T02:55:19.194Z,1016.62
2019-04-11T02:56:19.382Z,1016.62
2019-04-11T02:57:18.493Z,1016.64
2019-04-11T02:58:18.711Z,1016.63
2019-04-11T02:59:19.584Z,1016.64
2019-04-11T03:00:20.347Z,1016.65
2019-04-11T03:01:19.955Z,1016.65
2019-04-11T03:02:19.496Z,1016.64
2019-04-11T03:03:18.706Z,1016.63
2019-04-11T03:04:20.047Z,1016.62
2019-04-11T03:05:18.512Z,1016.63
2019-04-11T03:06:19.413Z,1016.66
2019-04-11T03:07:18.275Z,1016.68
2019-04-11T03:08:19.927Z,1016.61
2019-04-11T03:09:19.846Z,1016.65
2019-04-11T03:10:18.752Z,1016.66
2019-04-11T03:11:19.200Z,1016.65
2019-04-11T03:12:19.297Z,1016.63
2019-04-11T03:13:19.018Z,1016.66
2019-04-11T03:14:20.272Z,1016.67
2019-04-11T03:15:35.946Z,1016.67
2019-04-11T03:16:32.646Z,1016.70
2019-04-11T03:17:24.485Z,1016.68
2019-04-11T03:18:40.806Z,1016.79
2019-04-11T03:19:35.103Z,1016.72
2019-04-11T03:20:28.357Z,1016.71
2019-04-11T03:21:21.860Z,1016.77
2019-04-11T03:22:18.373Z,1016.73
2019-04-11T03:23:20.609Z,1016.74
2019-04-11T03:24:18.292Z,1016.76
2019-04-11T03:25:18.074Z,1016.77
2019-04-11T03:26:18.973Z,1016.74
2019-04-11T03:27:19.878Z,1016.74
2019-04-11T03:28:22.620Z,1016.74
2019-04-11T03:29:19.886Z,1016.73
2019-04-11T03:30:24.824Z,1016.76
2019-04-11T03:32:13.801Z,1016.77
2019-04-11T03:33:07.792Z,1016.80
2019-04-11T03:34:18.293Z,1016.79
2019-04-11T03:35:12.140Z,1016.80
2019-04-11T03:37:08.125Z,1016.77
2019-04-11T03:37:46.139Z,1016.80
2019-04-11T03:38:44.581Z,1016.80
2019-04-11T03:39:39.500Z,1016.80
2019-04-11T03:40:36.547Z,1016.81
2019-04-11T03:41:34.412Z,1016.83
2019-04-11T03:42:35.227Z,1016.84
2019-04-11T03:43:29.928Z,1016.77
2019-04-11T03:44:24.486Z,1016.87
2019-04-11T03:45:36.415Z,1016.80
2019-04-11T03:46:32.654Z,1016.84
2019-04-11T03:47:31.951Z,1016.84
2019-04-11T03:48:33.535Z,1016.87
2019-04-11T03:49:29.177Z,1016.89
2019-04-11T03:50:21.940Z,1016.85
2019-04-11T03:51:20.642Z,1016.86
2019-04-11T03:52:19.349Z,1016.87
2019-04-11T03:53:19.274Z,1016.85
2019-04-11T03:54:18.069Z,1016.76
2019-04-11T03:55:19.326Z,1016.77
2019-04-11T03:56:19.951Z,1016.83
2019-04-11T03:57:18.118Z,1016.85
2019-04-11T03:58:19.657Z,1016.85
2019-04-11T03:59:19.579Z,1016.81
2019-04-11T04:00:19.303Z,1016.87
2019-04-11T04:01:18.430Z,1016.87
2019-04-11T04:02:17.646Z,1016.84
2019-04-11T04:03:18.279Z,1016.85
2019-04-11T04:04:19.948Z,1016.84
2019-04-11T04:05:18.193Z,1016.86
2019-04-11T04:06:19.131Z,1016.83
2019-04-11T04:07:19.100Z,1016.87
2019-04-11T04:08:18.002Z,1016.91
2019-04-11T04:09:19.192Z,1016.90
2019-04-11T04:10:18.413Z,1016.95
2019-04-11T04:11:19.013Z,1016.94
2019-04-11T04:12:18.652Z,1016.90
2019-04-11T04:13:18.998Z,1016.95
2019-04-11T04:14:19.388Z,1016.99
2019-04-11T04:15:32.711Z,1017.00
2019-04-11T04:16:24.891Z,1016.99
2019-04-11T04:17:19.340Z,1017.03
2019-04-11T04:18:19.109Z,1017.10
2019-04-11T04:19:18.477Z,1017.00
2019-04-11T04:20:19.347Z,1017.05
2019-04-11T04:21:17.595Z,1017.05
2019-04-11T04:22:18.579Z,1017.09
2019-04-11T04:23:18.991Z,1017.07
2019-04-11T04:24:19.049Z,1017.11
2019-04-11T04:25:18.809Z,1017.08
2019-04-11T04:26:19.035Z,1017.16
2019-04-11T04:27:17.441Z,1017.19
2019-04-11T04:28:19.126Z,1017.17
2019-04-11T04:29:17.984Z,1017.19
2019-04-11T04:30:18.098Z,1017.19
2019-04-11T04:31:18.460Z,1017.22
2019-04-11T04:32:18.678Z,1017.23
2019-04-11T04:33:19.325Z,1017.24
2019-04-11T04:34:17.806Z,1017.25
2019-04-11T04:35:20.948Z,1017.24
2019-04-11T04:36:18.286Z,1017.28
2019-04-11T04:37:18.147Z,1017.28
2019-04-11T04:38:18.575Z,1017.30
2019-04-11T04:39:17.455Z,1017.27
2019-04-11T04:40:31.558Z,1017.22
2019-04-11T04:41:29.790Z,1017.26
2019-04-11T04:42:26.362Z,1017.24
2019-04-11T04:43:18.705Z,1017.29
2019-04-11T04:44:18.994Z,1017.30
2019-04-11T04:45:17.176Z,1017.32
2019-04-11T04:46:38.146Z,1017.39
2019-04-11T04:47:24.767Z,1017.42
2019-04-11T04:48:22.249Z,1017.40
2019-04-11T04:49:18.647Z,1017.43
2019-04-11T04:50:18.166Z,1017.40
2019-04-11T04:51:18.330Z,1017.38
2019-04-11T04:52:18.673Z,1017.41
2019-04-11T04:53:18.024Z,1017.40
2019-04-11T04:54:17.078Z,1017.39
2019-04-11T04:55:17.433Z,1017.42
2019-04-11T04:56:22.759Z,1017.43
2019-04-11T04:57:18.290Z,1017.50
2019-04-11T04:58:18.030Z,1017.47
2019-04-11T04:59:17.011Z,1017.48
2019-04-11T05:00:18.676Z,1017.47
2019-04-11T05:01:17.600Z,1017.44
2019-04-11T05:02:17.861Z,1017.49
2019-04-11T05:03:17.726Z,1017.48
2019-04-11T05:04:16.948Z,1017.47
2019-04-11T05:05:17.809Z,1017.53
2019-04-11T05:06:18.481Z,1017.51
2019-04-11T05:07:17.193Z,1017.50
2019-04-11T05:08:18.459Z,1017.52
2019-04-11T05:09:17.890Z,1017.51
2019-04-11T05:10:16.908Z,1017.50
2019-04-11T05:11:18.001Z,1017.49
2019-04-11T05:12:18.352Z,1017.48
2019-04-11T05:13:17.259Z,1017.57
2019-04-11T05:14:16.854Z,1017.53
2019-04-11T05:15:17.234Z,1017.54
2019-04-11T05:16:17.985Z,1017.53
2019-04-11T05:17:17.186Z,1017.57
2019-04-11T05:18:18.019Z,1017.61
2019-04-11T05:19:17.038Z,1017.59
2019-04-11T05:20:16.758Z,1017.67
2019-04-11T05:21:17.061Z,1017.66
2019-04-11T05:22:16.881Z,1017.63
2019-04-11T05:23:17.041Z,1017.62
2019-04-11T05:24:16.736Z,1017.62
2019-04-11T05:25:16.725Z,1017.65
2019-04-11T05:26:17.304Z,1017.64
2019-04-11T05:27:17.431Z,1017.64
2019-04-11T05:28:16.677Z,1017.66
2019-04-11T05:29:17.444Z,1017.65
2019-04-11T05:30:16.795Z,1017.74
2019-04-11T05:31:16.682Z,1017.71
2019-04-11T05:32:16.654Z,1017.69
2019-04-11T05:33:17.814Z,1017.74
2019-04-11T05:34:16.609Z,1017.74
2019-04-11T05:35:16.596Z,1017.71
2019-04-11T05:36:16.641Z,1017.76
2019-04-11T05:37:16.568Z,1017.81
2019-04-11T05:38:16.811Z,1017.78
2019-04-11T05:39:18.425Z,1017.82
2019-04-11T05:40:16.884Z,1017.82
2019-04-11T05:41:17.434Z,1017.84
2019-04-11T05:42:19.403Z,1017.84
2019-04-11T05:43:16.667Z,1017.86
2019-04-11T05:44:16.802Z,1017.88
2019-04-11T05:45:21.012Z,1017.86
2019-04-11T05:46:31.325Z,1017.89
2019-04-11T05:47:18.857Z,1017.83
2019-04-11T05:48:16.466Z,1017.86
2019-04-11T05:49:16.938Z,1017.85
2019-04-11T05:50:16.439Z,1017.85
2019-04-11T05:51:21.347Z,1017.87
2019-04-11T05:52:17.759Z,1017.88
2019-04-11T05:53:18.901Z,1017.90
2019-04-11T05:54:16.501Z,1017.81
2019-04-11T05:55:17.569Z,1017.90
2019-04-11T05:56:18.706Z,1017.88
2019-04-11T05:57:21.235Z,1017.85
2019-04-11T05:58:17.701Z,1017.84
2019-04-11T05:59:17.238Z,1017.83
2019-04-11T06:00:16.326Z,1017.86
2019-04-11T06:01:16.304Z,1017.85
2019-04-11T06:02:17.197Z,1017.89
2019-04-11T06:03:17.589Z,1017.87
2019-04-11T06:04:20.968Z,1017.90
2019-04-11T06:05:17.336Z,1017.93
2019-04-11T06:06:16.389Z,1017.94
2019-04-11T06:07:16.774Z,1017.94
2019-04-11T06:08:22.647Z,1017.93
2019-04-11T06:09:17.224Z,1017.93
2019-04-11T06:10:16.214Z,1017.96
2019-04-11T06:11:20.620Z,1017.94
2019-04-11T06:12:17.233Z,1017.95
2019-04-11T06:13:16.542Z,1017.94
2019-04-11T06:14:17.222Z,1017.96
2019-04-11T06:15:16.139Z,1017.94
2019-04-11T06:16:16.724Z,1018.00
2019-04-11T06:17:16.147Z,1018.01
2019-04-11T06:18:25.985Z,1018.00
2019-04-11T06:19:17.119Z,1018.00
2019-04-11T06:20:16.089Z,1018.00
2019-04-11T06:21:16.081Z,1017.97
2019-04-11T06:22:17.184Z,1018.05
2019-04-11T06:23:16.126Z,1018.01
2019-04-11T06:24:16.304Z,1018.01
2019-04-11T06:25:16.713Z,1018.06
2019-04-11T06:26:16.672Z,1018.04
2019-04-11T06:27:16.989Z,1018.01
2019-04-11T06:28:16.013Z,1018.03
2019-04-11T06:29:21.761Z,1018.02
2019-04-11T06:30:17.911Z,1017.98
2019-04-11T06:31:16.075Z,1017.99
2019-04-11T06:32:16.024Z,1018.01
2019-04-11T06:33:16.510Z,1018.03
2019-04-11T06:34:15.942Z,1018.01
2019-04-11T06:35:15.923Z,1018.03
2019-04-11T06:36:16.135Z,1018.09
2019-04-11T06:37:15.899Z,1018.06
2019-04-11T06:38:16.406Z,1018.14
2019-04-11T06:39:15.879Z,1018.14
2019-04-11T06:40:15.968Z,1018.11
2019-04-11T06:41:16.667Z,1018.11
2019-04-11T06:42:15.942Z,1018.10
2019-04-11T06:43:16.936Z,1018.12
2019-04-11T06:44:16.399Z,1018.12
2019-04-11T06:45:15.821Z,1018.15
2019-04-11T06:46:16.653Z,1018.16
2019-04-11T06:47:16.677Z,1018.05
2019-04-11T06:48:15.798Z,1018.08
2019-04-11T06:49:15.770Z,1018.12
2019-04-11T06:50:15.757Z,1018.13
2019-04-11T06:51:15.754Z,1018.14
2019-04-11T06:52:16.755Z,1018.08
2019-04-11T06:53:16.732Z,1018.11
2019-04-11T06:54:16.882Z,1018.13
2019-04-11T06:55:15.723Z,1018.17
2019-04-11T06:56:16.736Z,1018.14
2019-04-11T06:57:15.993Z,1018.14
2019-04-11T06:58:15.731Z,1018.15
2019-04-11T06:59:16.413Z,1018.15
2019-04-11T07:00:16.962Z,1018.11
2019-04-11T07:01:16.106Z,1018.15
2019-04-11T07:02:19.685Z,1018.21
2019-04-11T07:03:22.349Z,1018.18
2019-04-11T07:04:17.628Z,1018.16
2019-04-11T07:05:16.101Z,1018.20
2019-04-11T07:06:15.575Z,1018.19
2019-04-11T07:07:16.409Z,1018.22
2019-04-11T07:08:16.072Z,1018.20
2019-04-11T07:09:16.612Z,1018.23
2019-04-11T07:10:15.584Z,1018.28
2019-04-11T07:11:15.677Z,1018.24
2019-04-11T07:12:15.662Z,1018.22
2019-04-11T07:13:16.382Z,1018.25
2019-04-11T07:14:15.504Z,1018.19
2019-04-11T07:15:15.474Z,1018.26
2019-04-11T07:16:15.477Z,1018.24
2019-04-11T07:17:15.540Z,1018.29
2019-04-11T07:18:15.454Z,1018.35
2019-04-11T07:19:15.608Z,1018.28
2019-04-11T07:20:16.495Z,1018.33
2019-04-11T07:21:15.403Z,1018.40
2019-04-11T07:22:15.397Z,1018.36
2019-04-11T07:23:15.658Z,1018.33
2019-04-11T07:24:16.082Z,1018.32
2019-04-11T07:25:15.370Z,1018.30
2019-04-11T07:26:16.605Z,1018.30
2019-04-11T07:27:15.965Z,1018.29
2019-04-11T07:28:16.426Z,1018.28
2019-04-11T07:29:15.332Z,1018.28
2019-04-11T07:30:15.719Z,1018.24
2019-04-11T07:31:15.280Z,1018.29
2019-04-11T07:32:16.231Z,1018.29
2019-04-11T07:33:15.981Z,1018.30
2019-04-11T07:34:15.294Z,1018.31
2019-04-11T07:35:15.694Z,1018.31
2019-04-11T07:36:15.247Z,1018.32
2019-04-11T07:37:15.235Z,1018.35
2019-04-11T07:38:16.259Z,1018.39
2019-04-11T07:39:16.284Z,1018.41
2019-04-11T07:40:15.650Z,1018.39
2019-04-11T07:41:15.183Z,1018.33
2019-04-11T07:42:15.888Z,1018.40
2019-04-11T07:43:17.077Z,1018.36
2019-04-11T07:44:15.449Z,1018.38
2019-04-11T07:45:15.797Z,1018.39
2019-04-11T07:46:15.122Z,1018.37
2019-04-11T07:47:20.098Z,1018.36
2019-04-11T07:48:17.203Z,1018.37
2019-04-11T07:49:15.658Z,1018.39
2019-04-11T07:50:16.553Z,1018.41
2019-04-11T07:51:15.383Z,1018.38
2019-04-11T07:52:15.521Z,1018.39
2019-04-11T07:53:15.203Z,1018.44
2019-04-11T07:54:15.817Z,1018.43
2019-04-11T07:55:15.021Z,1018.41
2019-04-11T07:56:15.011Z,1018.44
2019-04-11T07:57:15.035Z,1018.38
2019-04-11T07:58:15.337Z,1018.38
2019-04-11T07:59:15.012Z,1018.42
2019-04-11T08:00:15.119Z,1018.35
2019-04-11T08:01:14.951Z,1018.43
2019-04-11T08:02:16.018Z,1018.36
2019-04-11T08:03:14.939Z,1018.35
2019-04-11T08:04:15.103Z,1018.36
2019-04-11T08:05:15.455Z,1018.36
2019-04-11T08:06:15.541Z,1018.46
2019-04-11T08:07:15.432Z,1018.39
2019-04-11T08:08:15.361Z,1018.42
2019-04-11T08:09:15.340Z,1018.45
2019-04-11T08:10:15.961Z,1018.43
2019-04-11T08:11:15.792Z,1018.46
2019-04-11T08:12:15.075Z,1018.44
2019-04-11T08:13:14.821Z,1018.44
2019-04-11T08:14:16.087Z,1018.39
2019-04-11T08:15:15.459Z,1018.39
2019-04-11T08:16:14.808Z,1018.44
2019-04-11T08:17:25.878Z,1018.49
2019-04-11T08:18:16.623Z,1018.43
2019-04-11T08:19:15.316Z,1018.47
2019-04-11T08:20:15.280Z,1018.47
2019-04-11T08:21:14.735Z,1018.48
2019-04-11T08:22:14.855Z,1018.50
2019-04-11T08:23:15.816Z,1018.48
2019-04-11T08:24:14.721Z,1018.46
2019-04-11T08:25:15.366Z,1018.43
2019-04-11T08:26:14.683Z,1018.47
2019-04-11T08:27:15.513Z,1018.44
2019-04-11T08:28:14.645Z,1018.49
2019-04-11T08:29:16.028Z,1018.46
2019-04-11T08:30:14.952Z,1018.52
2019-04-11T08:31:15.166Z,1018.48
2019-04-11T08:32:15.756Z,1018.47
2019-04-11T08:33:14.588Z,1018.49
2019-04-11T08:34:15.254Z,1018.46
2019-04-11T08:35:15.776Z,1018.54
2019-04-11T08:36:15.749Z,1018.45
2019-04-11T08:37:15.632Z,1018.43
2019-04-11T08:38:14.529Z,1018.46
2019-04-11T08:39:15.851Z,1018.42
2019-04-11T08:40:14.527Z,1018.39
2019-04-11T08:41:15.566Z,1018.48
2019-04-11T08:42:14.989Z,1018.45
2019-04-11T08:43:15.059Z,1018.47
2019-04-11T08:44:15.355Z,1018.44
2019-04-11T08:45:14.620Z,1018.42
2019-04-11T08:46:15.019Z,1018.41
2019-04-11T08:47:14.427Z,1018.42
2019-04-11T08:48:15.010Z,1018.45
2019-04-11T08:49:15.287Z,1018.54
2019-04-11T08:50:14.415Z,1018.47
2019-04-11T08:51:14.825Z,1018.41
2019-04-11T08:52:14.370Z,1018.45
2019-04-11T08:53:14.361Z,1018.49
2019-04-11T08:54:15.426Z,1018.51
2019-04-11T08:55:16.934Z,1018.51
2019-04-11T08:56:14.664Z,1018.55
2019-04-11T08:57:14.322Z,1018.57
2019-04-11T08:58:14.304Z,1018.52
2019-04-11T08:59:15.325Z,1018.57
2019-04-11T09:00:14.315Z,1018.57
2019-04-11T09:01:14.267Z,1018.61
2019-04-11T09:02:14.259Z,1018.56
2019-04-11T09:03:15.317Z,1018.53
2019-04-11T09:04:15.618Z,1018.53
2019-04-11T09:05:16.950Z,1018.52
2019-04-11T09:06:14.729Z,1018.53
2019-04-11T09:07:14.236Z,1018.49
2019-04-11T09:08:14.286Z,1018.54
2019-04-11T09:09:15.329Z,1018.49
2019-04-11T09:10:14.163Z,1018.42
2019-04-11T09:11:14.913Z,1018.50
2019-04-11T09:12:14.282Z,1018.42
2019-04-11T09:13:15.205Z,1018.42
2019-04-11T09:14:14.116Z,1018.37
2019-04-11T09:15:14.806Z,1018.39
2019-04-11T09:16:15.188Z,1018.40
2019-04-11T09:17:14.345Z,1018.42
2019-04-11T09:18:15.291Z,1018.40
2019-04-11T09:19:14.683Z,1018.43
2019-04-11T09:20:14.059Z,1018.43
2019-04-11T09:21:14.064Z,1018.41
2019-04-11T09:22:15.038Z,1018.36
2019-04-11T09:23:14.022Z,1018.40
2019-04-11T09:24:15.271Z,1018.42
2019-04-11T09:25:14.812Z,1018.42
2019-04-11T09:26:14.026Z,1018.40
2019-04-11T09:27:14.276Z,1018.38
2019-04-11T09:28:13.968Z,1018.40
2019-04-11T09:29:13.949Z,1018.42
2019-04-11T09:30:15.672Z,1018.42
2019-04-11T09:31:15.325Z,1018.38
2019-04-11T09:32:13.919Z,1018.40
2019-04-11T09:33:14.958Z,1018.36
2019-04-11T09:34:13.891Z,1018.33
2019-04-11T09:35:14.390Z,1018.38
2019-04-11T09:36:13.912Z,1018.46
2019-04-11T09:37:16.797Z,1018.39
2019-04-11T09:38:13.976Z,1018.50
2019-04-11T09:39:15.000Z,1018.51
2019-04-11T09:40:13.838Z,1018.48
2019-04-11T09:41:14.364Z,1018.48
2019-04-11T09:42:13.807Z,1018.46
2019-04-11T09:43:13.798Z,1018.40
2019-04-11T09:44:14.823Z,1018.43
2019-04-11T09:45:13.770Z,1018.47
2019-04-11T09:46:14.465Z,1018.50
2019-04-11T09:47:13.754Z,1018.41
2019-04-11T09:48:15.338Z,1018.43
2019-04-11T09:49:14.970Z,1018.42
2019-04-11T09:50:13.931Z,1018.49
2019-04-11T09:51:13.700Z,1018.50
2019-04-11T09:52:14.256Z,1018.50
2019-04-11T09:53:14.202Z,1018.51
2019-04-11T09:54:13.672Z,1018.48
2019-04-11T09:55:13.654Z,1018.50
2019-04-11T09:56:13.641Z,1018.48
2019-04-11T09:57:13.643Z,1018.47
2019-04-11T09:58:13.616Z,1018.48
2019-04-11T09:59:14.317Z,1018.49
2019-04-11T10:00:14.364Z,1018.43
2019-04-11T10:01:13.589Z,1018.39
2019-04-11T10:02:14.542Z,1018.42
2019-04-11T10:03:13.575Z,1018.43
2019-04-11T10:04:14.351Z,1018.50
2019-04-11T10:05:13.819Z,1018.49
2019-04-11T10:06:14.008Z,1018.49
2019-04-11T10:07:13.558Z,1018.48
2019-04-11T10:08:14.750Z,1018.47
2019-04-11T10:09:13.606Z,1018.44
2019-04-11T10:10:14.575Z,1018.48
2019-04-11T10:11:13.589Z,1018.47
2019-04-11T10:12:13.823Z,1018.44
2019-04-11T10:13:13.460Z,1018.48
2019-04-11T10:14:13.616Z,1018.43
2019-04-11T10:15:13.675Z,1018.42
2019-04-11T10:16:13.619Z,1018.39
2019-04-11T10:17:14.753Z,1018.46
2019-04-11T10:18:22.956Z,1018.51
2019-04-11T10:19:14.383Z,1018.47
2019-04-11T10:20:13.363Z,1018.51
2019-04-11T10:21:13.356Z,1018.47
2019-04-11T10:22:13.363Z,1018.44
2019-04-11T10:23:13.370Z,1018.47
2019-04-11T10:24:16.638Z,1018.51
2019-04-11T10:25:14.873Z,1018.52
2019-04-11T10:26:13.908Z,1018.51
2019-04-11T10:27:14.334Z,1018.51
2019-04-11T10:28:13.347Z,1018.53
2019-04-11T10:29:13.272Z,1018.50
2019-04-11T10:30:13.254Z,1018.53
2019-04-11T10:31:14.556Z,1018.47
2019-04-11T10:32:13.239Z,1018.51
2019-04-11T10:33:13.211Z,1018.50
2019-04-11T10:34:13.328Z,1018.59
2019-04-11T10:35:14.266Z,1018.56
2019-04-11T10:36:13.197Z,1018.51
2019-04-11T10:37:13.728Z,1018.64
2019-04-11T10:38:14.022Z,1018.65
2019-04-11T10:39:13.256Z,1018.62
2019-04-11T10:40:13.557Z,1018.60
2019-04-11T10:41:13.147Z,1018.57
2019-04-11T10:42:13.135Z,1018.60
2019-04-11T10:43:13.097Z,1018.61
2019-04-11T10:44:13.941Z,1018.64
2019-04-11T10:45:14.156Z,1018.63
2019-04-11T10:46:13.344Z,1018.52
2019-04-11T10:47:14.405Z,1018.63
2019-04-11T10:48:13.873Z,1018.54
2019-04-11T10:49:13.607Z,1018.60
2019-04-11T10:50:13.240Z,1018.59
2019-04-11T10:51:13.174Z,1018.81
2019-04-11T10:52:14.043Z,1018.68
2019-04-11T10:53:13.116Z,1018.58
2019-04-11T10:54:13.576Z,1018.60
2019-04-11T10:55:13.571Z,1018.59
2019-04-11T10:56:13.918Z,1018.59
2019-04-11T10:57:13.889Z,1018.56
2019-04-11T10:58:13.013Z,1018.53
2019-04-11T10:59:13.366Z,1018.57
2019-04-11T11:00:14.132Z,1018.53
2019-04-11T11:01:12.921Z,1018.54
2019-04-11T11:02:12.908Z,1018.55
2019-04-11T11:03:13.771Z,1018.66
2019-04-11T11:04:13.793Z,1018.63
2019-04-11T11:05:12.890Z,1018.59
2019-04-11T11:06:13.615Z,1018.53
2019-04-11T11:07:13.045Z,1018.58
2019-04-11T11:08:13.208Z,1018.52
2019-04-11T11:09:12.809Z,1018.46
2019-04-11T11:10:12.787Z,1018.45
2019-04-11T11:11:14.806Z,1018.55
2019-04-11T11:12:12.809Z,1018.52
2019-04-11T11:13:13.885Z,1018.53
2019-04-11T11:14:12.743Z,1018.50
2019-04-11T11:15:13.609Z,1018.49
2019-04-11T11:16:13.617Z,1018.55
2019-04-11T11:17:15.582Z,1018.53
2019-04-11T11:18:38.127Z,1018.50
2019-04-11T11:19:33.540Z,1018.51
2019-04-11T11:20:22.397Z,1018.49
2019-04-11T11:21:13.673Z,1018.56
2019-04-11T11:22:12.654Z,1018.55
2019-04-11T11:23:14.015Z,1018.55
2019-04-11T11:24:12.659Z,1018.55
2019-04-11T11:25:15.304Z,1018.53
2019-04-11T11:26:12.742Z,1018.57
2019-04-11T11:27:13.710Z,1018.60
2019-04-11T11:28:13.704Z,1018.59
2019-04-11T11:29:15.233Z,1018.64
2019-04-11T11:30:12.804Z,1018.65
2019-04-11T11:31:13.859Z,1018.58
2019-04-11T11:32:13.332Z,1018.61
2019-04-11T11:33:12.574Z,1018.65
2019-04-11T11:34:17.343Z,1018.71
2019-04-11T11:35:13.503Z,1018.68
2019-04-11T11:36:13.101Z,1018.72
2019-04-11T11:37:13.138Z,1018.72
2019-04-11T11:38:13.558Z,1018.74
2019-04-11T11:39:13.050Z,1018.76
2019-04-11T11:40:14.990Z,1018.76
2019-04-11T11:41:12.454Z,1018.78
2019-04-11T11:42:12.428Z,1018.80
2019-04-11T11:43:12.682Z,1018.74
2019-04-11T11:44:12.399Z,1018.74
2019-04-11T11:45:13.148Z,1018.75
2019-04-11T11:46:12.391Z,1018.72
2019-04-11T11:47:12.365Z,1018.76
2019-04-11T11:48:17.342Z,1018.76
2019-04-11T11:49:14.268Z,1018.77
2019-04-11T11:50:18.213Z,1018.83
2019-04-11T11:51:13.320Z,1018.73
2019-04-11T11:52:13.109Z,1018.80
2019-04-11T11:53:13.326Z,1018.81
2019-04-11T11:54:13.500Z,1018.83
2019-04-11T11:55:12.450Z,1018.83
2019-04-11T11:56:12.268Z,1018.84
2019-04-11T11:57:12.831Z,1018.84
2019-04-11T11:58:16.806Z,1018.83
2019-04-11T11:59:13.356Z,1018.80
2019-04-11T12:00:12.689Z,1018.89
2019-04-11T12:01:12.214Z,1018.79
2019-04-11T12:02:15.768Z,1018.85
2019-04-11T12:03:13.183Z,1018.87
2019-04-11T12:04:12.779Z,1018.84
2019-04-11T12:05:14.668Z,1018.86
2019-04-11T12:06:12.662Z,1018.88